Flight Track Log - Related Links

Times and Time Zones

All times are in EDT time to prevent confusion due to time zone crossing. See the SKW2657 flight status page for this flight to view local times or setup timezone preferences in your user account.

Time Position Orientation Groundspeed Altitude Reporting Facility
EDT Latitude Longitude Course Direction KTS MPH feet Rate Location/Type
Sun 12:18:22 AM 33.9333 -118.4333 239° Southwest 182 209 1,800  Level Southern California TRACON
Sun 12:19:22 AM 33.9000 -118.5000 239° Southwest 268 308 3,500 2,061 Climbing Southern California TRACON
Sun 12:20:33 AM 33.8428 -118.5569 220° Southwest 276 318 6,300 2,500 Climbing Los Angeles Center
Sun 12:21:34 AM 33.7400 -118.5325 169° South 296 341 9,000 2,311 Climbing Los Angeles Center
Sun 12:22:35 AM 33.6833 -118.4694 137° Southeast 302 348 11,000 1,623 Climbing Los Angeles Center
Sun 12:23:36 AM 33.6514 -118.3681 111° Southeast 324 373 12,300 1,475 Climbing Los Angeles Center
Sun 12:24:37 AM 33.6444 -118.2553 94° East 347 399 14,000 1,525 Climbing Los Angeles Center
Sun 12:25:38 AM 33.6442 -118.1389 90° East 354 407 15,400 1,463 Climbing Los Angeles Center
Sun 12:26:40 AM 33.6450 -118.0192 89° East 361 415 17,000 780 Climbing Los Angeles Center
Sun 12:27:41 AM 33.6436 -117.8972 91° East 366 421 17,000 984 Level Los Angeles Center
Sun 12:29:43 AM 33.6428 -117.6289 90° East 372 428 20,000 1,231 Climbing Los Angeles Center
Sun 12:30:56 AM 33.6419 -117.5025 90° East 380 437 21,000 1,164 Climbing Los Angeles Center
Sun 12:31:57 AM 33.6414 -117.3469 90° East 389 448 22,600 1,328 Climbing Los Angeles Center
Sun 12:32:58 AM 33.6400 -117.2186 91° East 388 447 23,700 984 Climbing Los Angeles Center
Sun 12:33:59 AM 33.6397 -117.0872 90° East 394 453 24,600 934 Climbing Los Angeles Center
Sun 12:35:00 AM 33.6381 -116.9553 91° East 396 456 25,600 787 Climbing Los Angeles Center
Sun 12:36:01 AM 33.6369 -116.8375 91° East 403 464 26,200 738 Climbing Los Angeles Center
Sun 12:37:02 AM 33.6308 -116.6739 93° East 409 471 27,100 787 Climbing Los Angeles Center
Sun 12:38:03 AM 33.6228 -116.5378 94° East 408 470 27,800 590 Climbing Los Angeles Center
Sun 12:39:04 AM 33.6153 -116.3978 94° East 417 480 28,300 541 Climbing Los Angeles Center
Sun 12:40:05 AM 33.6078 -116.2578 94° East 419 482 28,900 590 Climbing Los Angeles Center
Sun 12:41:06 AM 33.5994 -116.1153 94° East 427 491 29,500 639 Climbing Los Angeles Center
Sun 12:42:07 AM 33.5903 -115.9744 94° East 423 487 30,200 639 Climbing Los Angeles Center
Sun 12:43:08 AM 33.5831 -115.8356 94° East 418 481 30,800 541 Climbing Los Angeles Center
Sun 12:44:09 AM 33.5731 -115.6950 95° East 422 486 31,300 639 Climbing Los Angeles Center
Sun 12:45:10 AM 33.5647 -115.5556 94° East 418 481 32,100 590 Climbing Los Angeles Center
Sun 12:46:11 AM 33.5553 -115.4161 95° East 419 482 32,500 443 Climbing Los Angeles Center
Sun 12:47:12 AM 33.5442 -115.2494 95° East 419 482 33,000 248 Climbing Los Angeles Center
Sun 12:48:12 AM 33.5342 -115.1061 95° East 429 494 33,000  Level Los Angeles Center
Sun 12:49:13 AM 33.5236 -114.9592 95° East 442 509 33,000  Level Los Angeles Center
Sun 12:50:14 AM 33.5122 -114.8100 95° East 448 516 33,000  Level Los Angeles Center
Sun 12:51:15 AM 33.5022 -114.6606 95° East 451 519 33,000 -246 Level Los Angeles Center
Sun 12:52:16 AM 33.4925 -114.5100 94° East 455 524 32,500 -1,574 Descending Los Angeles Center
Sun 12:53:17 AM 33.4828 -114.3600 94° East 454 522 29,800 -2,607 Descending Los Angeles Center
Sun 12:54:18 AM 33.4717 -114.2161 95° East 439 505 27,200 -2,361 Descending Los Angeles Center
Sun 12:55:19 AM 33.4611 -114.0736 95° East 432 497 25,000 -1,082 Descending Los Angeles Center
Sun 12:56:20 AM 33.4425 -113.9397 99° East 411 473 25,000  Level Los Angeles Center
Sun 12:57:20 AM 33.4236 -113.8028 99° East 418 481 25,000  Level Los Angeles Center
Sun 12:58:21 AM 33.4036 -113.6675 100° East 414 476 25,000  Level Los Angeles Center
Sun 12:59:22 AM 33.3853 -113.5325 99° East 412 474 25,000 -350 Level Los Angeles Center
Sun 01:00:38 AM 33.3578 -113.3481 100° East 414 476 24,200 -1,314 Descending Albuquerque Center
Sun 01:01:39 AM 33.3389 -113.2133 99° East 412 474 22,000 -2,132 Descending Albuquerque Center
Sun 01:02:39 AM 33.3206 -113.0881 100° East 393 452 19,900 -1,736 Descending Albuquerque Center
Sun 01:03:40 AM 33.3036 -112.9719 100° East 374 430 18,500 -1,785 Descending Albuquerque Center
Sun 01:04:40 AM 33.2858 -112.8614 101° East 358 412 16,300 -1,636 Descending Albuquerque Center
Sun 01:05:41 AM 33.2833 -112.7542 92° East 340 391 15,200 -744 Descending Albuquerque Center
Sun 01:06:41 AM 33.2839 -112.6414 90° East 338 389 14,800 -942 Descending Albuquerque Center
Sun 01:07:42 AM 33.2864 -112.5375 88° East 324 373 13,300 -1,537 Descending Albuquerque Center
Sun 01:08:42 AM 33.2897 -112.4319 88° East 312 359 11,700 -1,190 Descending Albuquerque Center
Sun 01:09:43 AM 33.2925 -112.3364 88° East 301 346 10,900 -1,041 Descending Albuquerque Center
Sun 01:10:43 AM 33.2997 -112.2403 85° East 292 336 9,600 -942 Descending Albuquerque Center
Sun 01:11:44 AM 33.3064 -112.1531 85° East 268 308 9,000 -496 Descending Albuquerque Center
Sun 01:12:44 AM 33.3161 -112.0756 81° East 243 280 8,600 -793 Descending Albuquerque Center
Sun 01:13:45 AM 33.3353 -111.9986 73° East 243 280 7,400 -992 Descending Albuquerque Center
Sun 01:14:45 AM 33.3464 -111.9214 80° East 238 274 6,600 -1,200 Descending Albuquerque Center
Sun 01:15:45 AM 33.3753 -111.8658 58° Northeast 216 249 5,000 -1,736 Descending Albuquerque Center
Sun 01:16:46 AM 33.4269 -111.8919 337° Northwest 183 211 3,100 -1,592 Descending Albuquerque Center
Sun 01:17:23 AM 33.4333 -111.9167 287° West 151 174 2,400 -928 Descending Phoenix TRACON
Sun 01:18:23 AM 33.4333 -111.9667 270° West 148 170 1,600 -800 Descending Phoenix TRACON

Login

Don't have an account? Register now (free) for customized features, flight alerts, and more!